sensor_id;sensor_type;location;lat;lon;timestamp;P1;durP1;ratioP1;P2;durP2;ratioP2
40939;SDS011;26666;50.156;7.700;2023-05-09T00:02:27;10.05;;;4.07;;
40939;SDS011;26666;50.156;7.700;2023-05-09T00:07:28;10.73;;;4.22;;
40939;SDS011;26666;50.156;7.700;2023-05-09T00:12:32;8.02;;;4.68;;
40939;SDS011;26666;50.156;7.700;2023-05-09T00:17:33;6.15;;;4.25;;
40939;SDS011;26666;50.156;7.700;2023-05-09T00:22:35;9.63;;;4.15;;
40939;SDS011;26666;50.156;7.700;2023-05-09T00:27:39;9.75;;;4.55;;
40939;SDS011;26666;50.156;7.700;2023-05-09T00:32:41;9.32;;;4.22;;
40939;SDS011;26666;50.156;7.700;2023-05-09T00:37:42;6.65;;;4.35;;
40939;SDS011;26666;50.156;7.700;2023-05-09T00:42:45;16.30;;;5.47;;
40939;SDS011;26666;50.156;7.700;2023-05-09T00:47:47;19.75;;;5.22;;
40939;SDS011;26666;50.156;7.700;2023-05-09T00:52:49;12.77;;;4.28;;
40939;SDS011;26666;50.156;7.700;2023-05-09T00:57:52;10.80;;;3.97;;
40939;SDS011;26666;50.156;7.700;2023-05-09T01:02:54;8.23;;;5.38;;
40939;SDS011;26666;50.156;7.700;2023-05-09T01:07:59;9.73;;;4.97;;
40939;SDS011;26666;50.156;7.700;2023-05-09T01:13:11;11.85;;;4.32;;
40939;SDS011;26666;50.156;7.700;2023-05-09T01:18:22;8.98;;;4.15;;
40939;SDS011;26666;50.156;7.700;2023-05-09T01:23:40;8.07;;;3.20;;
40939;SDS011;26666;50.156;7.700;2023-05-09T01:29:20;9.32;;;3.80;;
40939;SDS011;26666;50.156;7.700;2023-05-09T01:34:34;12.27;;;5.30;;
40939;SDS011;26666;50.156;7.700;2023-05-09T01:39:38;15.52;;;4.40;;
40939;SDS011;26666;50.156;7.700;2023-05-09T01:44:43;6.90;;;4.05;;
40939;SDS011;26666;50.156;7.700;2023-05-09T01:54:50;8.27;;;4.20;;
40939;SDS011;26666;50.156;7.700;2023-05-09T01:59:53;11.40;;;5.05;;
40939;SDS011;26666;50.156;7.700;2023-05-09T02:04:56;11.45;;;4.20;;
40939;SDS011;26666;50.156;7.700;2023-05-09T02:09:58;8.38;;;4.28;;
40939;SDS011;26666;50.156;7.700;2023-05-09T02:15:04;12.32;;;3.40;;
40939;SDS011;26666;50.156;7.700;2023-05-09T02:20:10;9.03;;;4.37;;
40939;SDS011;26666;50.156;7.700;2023-05-09T02:25:26;14.82;;;4.28;;
40939;SDS011;26666;50.156;7.700;2023-05-09T02:30:30;15.68;;;4.63;;
40939;SDS011;26666;50.156;7.700;2023-05-09T02:35:36;12.20;;;4.22;;
40939;SDS011;26666;50.156;7.700;2023-05-09T02:40:40;9.00;;;5.03;;
40939;SDS011;26666;50.156;7.700;2023-05-09T02:45:44;6.60;;;3.85;;
40939;SDS011;26666;50.156;7.700;2023-05-09T02:50:46;9.20;;;4.55;;
40939;SDS011;26666;50.156;7.700;2023-05-09T02:55:47;15.27;;;5.30;;
40939;SDS011;26666;50.156;7.700;2023-05-09T03:00:50;15.30;;;4.68;;
40939;SDS011;26666;50.156;7.700;2023-05-09T03:05:52;9.38;;;4.90;;
40939;SDS011;26666;50.156;7.700;2023-05-09T03:10:54;10.43;;;3.80;;
40939;SDS011;26666;50.156;7.700;2023-05-09T03:15:57;11.25;;;4.20;;
40939;SDS011;26666;50.156;7.700;2023-05-09T03:20:59;10.40;;;4.72;;
40939;SDS011;26666;50.156;7.700;2023-05-09T03:26:00;9.35;;;4.93;;
40939;SDS011;26666;50.156;7.700;2023-05-09T03:31:03;15.27;;;4.90;;
40939;SDS011;26666;50.156;7.700;2023-05-09T03:36:05;13.82;;;4.78;;
40939;SDS011;26666;50.156;7.700;2023-05-09T03:41:08;7.70;;;4.43;;
40939;SDS011;26666;50.156;7.700;2023-05-09T03:46:11;10.25;;;4.60;;
40939;SDS011;26666;50.156;7.700;2023-05-09T03:51:13;9.88;;;5.05;;
40939;SDS011;26666;50.156;7.700;2023-05-09T03:56:14;7.50;;;4.10;;
40939;SDS011;26666;50.156;7.700;2023-05-09T04:01:17;6.43;;;4.15;;
40939;SDS011;26666;50.156;7.700;2023-05-09T04:06:19;8.07;;;4.63;;
40939;SDS011;26666;50.156;7.700;2023-05-09T04:11:21;10.57;;;4.53;;
40939;SDS011;26666;50.156;7.700;2023-05-09T04:16:24;5.50;;;3.95;;
40939;SDS011;26666;50.156;7.700;2023-05-09T04:21:26;9.27;;;4.85;;
40939;SDS011;26666;50.156;7.700;2023-05-09T04:26:27;8.05;;;3.95;;
40939;SDS011;26666;50.156;7.700;2023-05-09T04:31:31;17.48;;;5.50;;
40939;SDS011;26666;50.156;7.700;2023-05-09T04:36:32;8.50;;;4.18;;
40939;SDS011;26666;50.156;7.700;2023-05-09T04:41:34;8.00;;;4.53;;
40939;SDS011;26666;50.156;7.700;2023-05-09T04:46:37;7.82;;;4.57;;
40939;SDS011;26666;50.156;7.700;2023-05-09T04:51:39;12.32;;;4.93;;
40939;SDS011;26666;50.156;7.700;2023-05-09T04:56:41;11.20;;;6.32;;
40939;SDS011;26666;50.156;7.700;2023-05-09T05:01:44;7.22;;;4.05;;
40939;SDS011;26666;50.156;7.700;2023-05-09T05:06:46;8.25;;;4.70;;
40939;SDS011;26666;50.156;7.700;2023-05-09T05:11:47;14.80;;;7.90;;
40939;SDS011;26666;50.156;7.700;2023-05-09T05:17:03;17.67;;;9.60;;
40939;SDS011;26666;50.156;7.700;2023-05-09T05:22:05;21.20;;;9.93;;
40939;SDS011;26666;50.156;7.700;2023-05-09T05:27:06;11.20;;;5.80;;
40939;SDS011;26666;50.156;7.700;2023-05-09T05:32:09;10.85;;;5.85;;
40939;SDS011;26666;50.156;7.700;2023-05-09T05:37:11;12.57;;;4.40;;
40939;SDS011;26666;50.156;7.700;2023-05-09T05:42:13;6.78;;;4.05;;
40939;SDS011;26666;50.156;7.700;2023-05-09T05:47:16;11.75;;;5.30;;
40939;SDS011;26666;50.156;7.700;2023-05-09T05:52:18;7.57;;;3.85;;
40939;SDS011;26666;50.156;7.700;2023-05-09T05:57:20;8.95;;;4.80;;
40939;SDS011;26666;50.156;7.700;2023-05-09T06:02:23;14.07;;;6.53;;
40939;SDS011;26666;50.156;7.700;2023-05-09T06:07:25;8.05;;;4.70;;
40939;SDS011;26666;50.156;7.700;2023-05-09T06:12:27;9.00;;;5.45;;
40939;SDS011;26666;50.156;7.700;2023-05-09T06:17:30;19.98;;;7.32;;
40939;SDS011;26666;50.156;7.700;2023-05-09T06:22:32;15.65;;;8.75;;
40939;SDS011;26666;50.156;7.700;2023-05-09T06:27:34;18.67;;;8.00;;
40939;SDS011;26666;50.156;7.700;2023-05-09T06:32:39;20.05;;;9.05;;
40939;SDS011;26666;50.156;7.700;2023-05-09T06:37:41;17.45;;;9.30;;
40939;SDS011;26666;50.156;7.700;2023-05-09T06:42:43;18.73;;;9.93;;
40939;SDS011;26666;50.156;7.700;2023-05-09T06:47:46;22.30;;;9.90;;
40939;SDS011;26666;50.156;7.700;2023-05-09T06:52:48;23.10;;;10.00;;
40939;SDS011;26666;50.156;7.700;2023-05-09T06:57:51;20.02;;;9.60;;
40939;SDS011;26666;50.156;7.700;2023-05-09T07:02:54;21.35;;;9.38;;
40939;SDS011;26666;50.156;7.700;2023-05-09T07:07:56;23.98;;;10.10;;
40939;SDS011;26666;50.156;7.700;2023-05-09T07:13:02;23.45;;;10.60;;
40939;SDS011;26666;50.156;7.700;2023-05-09T07:18:08;22.25;;;10.75;;
40939;SDS011;26666;50.156;7.700;2023-05-09T07:23:12;18.42;;;9.45;;
40939;SDS011;26666;50.156;7.700;2023-05-09T07:28:13;20.23;;;9.88;;
40939;SDS011;26666;50.156;7.700;2023-05-09T07:33:19;18.67;;;10.20;;
40939;SDS011;26666;50.156;7.700;2023-05-09T07:38:31;25.25;;;10.60;;
40939;SDS011;26666;50.156;7.700;2023-05-09T07:43:52;19.83;;;9.93;;
40939;SDS011;26666;50.156;7.700;2023-05-09T07:48:56;21.85;;;9.48;;
40939;SDS011;26666;50.156;7.700;2023-05-09T07:53:58;21.02;;;9.30;;
40939;SDS011;26666;50.156;7.700;2023-05-09T07:58:59;19.05;;;9.75;;
40939;SDS011;26666;50.156;7.700;2023-05-09T08:04:02;16.95;;;9.38;;
40939;SDS011;26666;50.156;7.700;2023-05-09T08:09:04;31.60;;;10.50;;
40939;SDS011;26666;50.156;7.700;2023-05-09T08:14:08;18.92;;;9.75;;
40939;SDS011;26666;50.156;7.700;2023-05-09T08:19:11;19.80;;;9.02;;
40939;SDS011;26666;50.156;7.700;2023-05-09T08:24:13;19.83;;;10.25;;
40939;SDS011;26666;50.156;7.700;2023-05-09T08:29:15;18.85;;;8.90;;
40939;SDS011;26666;50.156;7.700;2023-05-09T08:34:18;17.92;;;9.07;;
40939;SDS011;26666;50.156;7.700;2023-05-09T08:39:23;15.65;;;7.85;;
40939;SDS011;26666;50.156;7.700;2023-05-09T08:44:54;19.20;;;8.05;;
40939;SDS011;26666;50.156;7.700;2023-05-09T08:50:05;15.82;;;8.48;;
40939;SDS011;26666;50.156;7.700;2023-05-09T08:55:09;14.50;;;6.78;;
40939;SDS011;26666;50.156;7.700;2023-05-09T09:07:06;15.15;;;7.60;;
40939;SDS011;26666;50.156;7.700;2023-05-09T09:18:57;13.63;;;7.03;;
40939;SDS011;26666;50.156;7.700;2023-05-09T09:24:29;14.77;;;7.13;;
40939;SDS011;26666;50.156;7.700;2023-05-09T09:29:44;16.10;;;6.85;;
40939;SDS011;26666;50.156;7.700;2023-05-09T09:35:57;16.83;;;7.15;;
40939;SDS011;26666;50.156;7.700;2023-05-09T09:41:04;13.77;;;6.18;;
40939;SDS011;26666;50.156;7.700;2023-05-09T09:52:31;12.57;;;6.15;;
40939;SDS011;26666;50.156;7.700;2023-05-09T10:23:47;7.63;;;3.70;;
40939;SDS011;26666;50.156;7.700;2023-05-09T10:41:53;7.85;;;4.05;;
40939;SDS011;26666;50.156;7.700;2023-05-09T11:01:00;7.53;;;3.08;;
40939;SDS011;26666;50.156;7.700;2023-05-09T11:07:02;10.57;;;3.38;;
40939;SDS011;26666;50.156;7.700;2023-05-09T11:12:52;7.18;;;3.60;;
40939;SDS011;26666;50.156;7.700;2023-05-09T11:18:10;8.45;;;3.85;;
40939;SDS011;26666;50.156;7.700;2023-05-09T11:23:42;3.70;;;2.80;;
40939;SDS011;26666;50.156;7.700;2023-05-09T11:29:49;6.45;;;3.45;;
40939;SDS011;26666;50.156;7.700;2023-05-09T11:42:42;10.55;;;3.55;;
40939;SDS011;26666;50.156;7.700;2023-05-09T11:50:47;6.85;;;2.33;;
40939;SDS011;26666;50.156;7.700;2023-05-09T11:54:39;8.02;;;2.75;;
40939;SDS011;26666;50.156;7.700;2023-05-09T12:25:38;5.97;;;2.67;;
40939;SDS011;26666;50.156;7.700;2023-05-09T12:49:49;5.40;;;3.55;;
40939;SDS011;26666;50.156;7.700;2023-05-09T13:01:14;5.43;;;3.05;;
40939;SDS011;26666;50.156;7.700;2023-05-09T13:43:52;4.53;;;2.25;;
40939;SDS011;26666;50.156;7.700;2023-05-09T13:49:46;2.70;;;2.05;;
40939;SDS011;26666;50.156;7.700;2023-05-09T14:01:46;4.80;;;3.38;;
40939;SDS011;26666;50.156;7.700;2023-05-09T14:08:06;4.93;;;2.97;;
40939;SDS011;26666;50.156;7.700;2023-05-09T14:15:08;5.93;;;3.20;;
40939;SDS011;26666;50.156;7.700;2023-05-09T14:20:32;4.10;;;2.90;;
40939;SDS011;26666;50.156;7.700;2023-05-09T14:32:57;5.68;;;2.92;;
40939;SDS011;26666;50.156;7.700;2023-05-09T14:38:35;6.07;;;3.45;;
40939;SDS011;26666;50.156;7.700;2023-05-09T14:44:36;6.07;;;3.20;;
40939;SDS011;26666;50.156;7.700;2023-05-09T15:08:59;2.83;;;1.75;;
40939;SDS011;26666;50.156;7.700;2023-05-09T15:14:01;4.38;;;2.03;;
40939;SDS011;26666;50.156;7.700;2023-05-09T15:19:11;7.93;;;3.85;;
40939;SDS011;26666;50.156;7.700;2023-05-09T15:24:17;5.72;;;3.38;;
40939;SDS011;26666;50.156;7.700;2023-05-09T15:29:19;17.23;;;4.40;;
40939;SDS011;26666;50.156;7.700;2023-05-09T15:34:28;5.43;;;3.80;;
40939;SDS011;26666;50.156;7.700;2023-05-09T15:39:33;6.30;;;3.58;;
40939;SDS011;26666;50.156;7.700;2023-05-09T15:44:35;13.70;;;4.18;;
40939;SDS011;26666;50.156;7.700;2023-05-09T15:49:37;10.13;;;5.10;;
40939;SDS011;26666;50.156;7.700;2023-05-09T15:54:40;11.73;;;5.07;;
40939;SDS011;26666;50.156;7.700;2023-05-09T15:59:42;14.30;;;5.13;;
40939;SDS011;26666;50.156;7.700;2023-05-09T16:04:43;11.25;;;5.57;;
40939;SDS011;26666;50.156;7.700;2023-05-09T16:09:46;12.80;;;4.60;;
40939;SDS011;26666;50.156;7.700;2023-05-09T16:14:48;8.27;;;5.13;;
40939;SDS011;26666;50.156;7.700;2023-05-09T16:20:29;12.10;;;5.97;;
40939;SDS011;26666;50.156;7.700;2023-05-09T16:25:32;10.80;;;5.20;;
40939;SDS011;26666;50.156;7.700;2023-05-09T16:30:36;15.32;;;6.22;;
40939;SDS011;26666;50.156;7.700;2023-05-09T16:35:38;8.15;;;5.07;;
40939;SDS011;26666;50.156;7.700;2023-05-09T16:40:41;10.93;;;5.72;;
40939;SDS011;26666;50.156;7.700;2023-05-09T16:45:43;10.93;;;5.00;;
40939;SDS011;26666;50.156;7.700;2023-05-09T16:50:44;8.57;;;6.38;;
40939;SDS011;26666;50.156;7.700;2023-05-09T16:55:47;14.93;;;6.32;;
40939;SDS011;26666;50.156;7.700;2023-05-09T17:00:49;6.93;;;3.78;;
40939;SDS011;26666;50.156;7.700;2023-05-09T17:05:51;3.20;;;1.92;;
40939;SDS011;26666;50.156;7.700;2023-05-09T17:10:54;4.43;;;1.70;;
40939;SDS011;26666;50.156;7.700;2023-05-09T17:15:57;5.30;;;0.93;;
40939;SDS011;26666;50.156;7.700;2023-05-09T17:20:58;4.47;;;1.13;;
40939;SDS011;26666;50.156;7.700;2023-05-09T17:26:01;2.70;;;1.00;;
40939;SDS011;26666;50.156;7.700;2023-05-09T17:31:03;5.68;;;1.23;;
40939;SDS011;26666;50.156;7.700;2023-05-09T17:36:07;1.42;;;0.70;;
40939;SDS011;26666;50.156;7.700;2023-05-09T17:41:11;4.75;;;0.90;;
40939;SDS011;26666;50.156;7.700;2023-05-09T17:46:13;5.03;;;1.17;;
40939;SDS011;26666;50.156;7.700;2023-05-09T17:51:15;3.63;;;0.60;;
40939;SDS011;26666;50.156;7.700;2023-05-09T17:56:18;2.63;;;1.20;;
40939;SDS011;26666;50.156;7.700;2023-05-09T18:01:20;11.18;;;1.10;;
40939;SDS011;26666;50.156;7.700;2023-05-09T18:06:21;1.45;;;0.85;;
40939;SDS011;26666;50.156;7.700;2023-05-09T18:11:25;7.20;;;1.08;;
40939;SDS011;26666;50.156;7.700;2023-05-09T18:16:26;1.15;;;0.80;;
40939;SDS011;26666;50.156;7.700;2023-05-09T18:21:28;1.92;;;0.57;;
40939;SDS011;26666;50.156;7.700;2023-05-09T18:26:31;0.85;;;0.73;;
40939;SDS011;26666;50.156;7.700;2023-05-09T18:31:33;0.85;;;0.65;;
40939;SDS011;26666;50.156;7.700;2023-05-09T18:36:34;0.85;;;0.60;;
40939;SDS011;26666;50.156;7.700;2023-05-09T18:41:37;1.30;;;0.88;;
40939;SDS011;26666;50.156;7.700;2023-05-09T18:46:39;2.97;;;0.75;;
40939;SDS011;26666;50.156;7.700;2023-05-09T18:51:41;1.13;;;0.82;;
40939;SDS011;26666;50.156;7.700;2023-05-09T18:56:44;2.75;;;0.68;;
40939;SDS011;26666;50.156;7.700;2023-05-09T19:01:46;0.98;;;0.82;;
40939;SDS011;26666;50.156;7.700;2023-05-09T19:06:47;3.00;;;0.82;;
40939;SDS011;26666;50.156;7.700;2023-05-09T19:11:51;0.93;;;0.70;;
40939;SDS011;26666;50.156;7.700;2023-05-09T19:16:52;4.97;;;1.38;;
40939;SDS011;26666;50.156;7.700;2023-05-09T19:21:54;1.23;;;0.70;;
40939;SDS011;26666;50.156;7.700;2023-05-09T19:26:57;2.88;;;0.80;;
40939;SDS011;26666;50.156;7.700;2023-05-09T19:31:59;4.05;;;0.60;;
40939;SDS011;26666;50.156;7.700;2023-05-09T19:37:01;3.40;;;0.60;;
40939;SDS011;26666;50.156;7.700;2023-05-09T19:42:04;7.70;;;1.20;;
40939;SDS011;26666;50.156;7.700;2023-05-09T19:47:06;2.72;;;1.17;;
40939;SDS011;26666;50.156;7.700;2023-05-09T19:52:07;4.80;;;0.88;;
40939;SDS011;26666;50.156;7.700;2023-05-09T19:57:10;2.13;;;1.08;;
40939;SDS011;26666;50.156;7.700;2023-05-09T20:02:12;11.95;;;2.78;;
40939;SDS011;26666;50.156;7.700;2023-05-09T20:07:14;4.57;;;1.67;;
40939;SDS011;26666;50.156;7.700;2023-05-09T20:12:17;4.43;;;1.08;;
40939;SDS011;26666;50.156;7.700;2023-05-09T20:17:19;8.77;;;1.35;;
40939;SDS011;26666;50.156;7.700;2023-05-09T20:22:21;2.22;;;0.60;;
40939;SDS011;26666;50.156;7.700;2023-05-09T20:27:24;1.45;;;0.80;;
40939;SDS011;26666;50.156;7.700;2023-05-09T20:32:25;5.35;;;1.17;;
40939;SDS011;26666;50.156;7.700;2023-05-09T20:37:27;6.38;;;1.25;;
40939;SDS011;26666;50.156;7.700;2023-05-09T20:42:30;2.20;;;0.47;;
40939;SDS011;26666;50.156;7.700;2023-05-09T20:47:32;1.25;;;0.40;;
40939;SDS011;26666;50.156;7.700;2023-05-09T20:52:34;1.60;;;0.17;;
40939;SDS011;26666;50.156;7.700;2023-05-09T20:57:37;2.67;;;0.13;;
40939;SDS011;26666;50.156;7.700;2023-05-09T21:02:38;0.38;;;0.10;;
40939;SDS011;26666;50.156;7.700;2023-05-09T21:07:40;4.10;;;0.15;;
40939;SDS011;26666;50.156;7.700;2023-05-09T21:12:43;0.22;;;0.00;;
40939;SDS011;26666;50.156;7.700;2023-05-09T21:17:45;0.73;;;0.00;;
40939;SDS011;26666;50.156;7.700;2023-05-09T21:22:47;3.10;;;0.00;;
40939;SDS011;26666;50.156;7.700;2023-05-09T21:27:50;0.10;;;0.00;;
40939;SDS011;26666;50.156;7.700;2023-05-09T21:32:52;0.70;;;0.00;;
40939;SDS011;26666;50.156;7.700;2023-05-09T21:37:53;1.65;;;0.00;;
40939;SDS011;26666;50.156;7.700;2023-05-09T21:42:56;12.48;;;0.10;;
40939;SDS011;26666;50.156;7.700;2023-05-09T21:47:58;4.80;;;0.00;;
40939;SDS011;26666;50.156;7.700;2023-05-09T21:53:00;4.75;;;0.00;;
40939;SDS011;26666;50.156;7.700;2023-05-09T21:58:03;6.85;;;0.20;;
40939;SDS011;26666;50.156;7.700;2023-05-09T22:03:05;0.85;;;0.00;;
40939;SDS011;26666;50.156;7.700;2023-05-09T22:08:06;0.00;;;0.00;;
40939;SDS011;26666;50.156;7.700;2023-05-09T22:13:09;0.00;;;0.00;;
40939;SDS011;26666;50.156;7.700;2023-05-09T22:18:11;1.38;;;0.05;;
40939;SDS011;26666;50.156;7.700;2023-05-09T22:23:13;0.15;;;0.00;;
40939;SDS011;26666;50.156;7.700;2023-05-09T22:28:16;2.00;;;0.00;;
40939;SDS011;26666;50.156;7.700;2023-05-09T22:33:18;3.75;;;0.00;;
40939;SDS011;26666;50.156;7.700;2023-05-09T22:38:20;0.00;;;0.00;;
40939;SDS011;26666;50.156;7.700;2023-05-09T22:43:23;2.83;;;0.00;;
40939;SDS011;26666;50.156;7.700;2023-05-09T22:48:34;0.00;;;0.00;;
40939;SDS011;26666;50.156;7.700;2023-05-09T22:53:35;0.82;;;0.00;;
40939;SDS011;26666;50.156;7.700;2023-05-09T22:58:38;2.53;;;0.00;;
40939;SDS011;26666;50.156;7.700;2023-05-09T23:03:40;0.10;;;0.00;;
40939;SDS011;26666;50.156;7.700;2023-05-09T23:08:42;0.00;;;0.00;;
40939;SDS011;26666;50.156;7.700;2023-05-09T23:13:45;0.00;;;0.00;;
40939;SDS011;26666;50.156;7.700;2023-05-09T23:18:46;3.72;;;0.15;;
40939;SDS011;26666;50.156;7.700;2023-05-09T23:23:48;0.00;;;0.00;;
40939;SDS011;26666;50.156;7.700;2023-05-09T23:28:51;0.00;;;0.00;;
40939;SDS011;26666;50.156;7.700;2023-05-09T23:33:53;0.35;;;0.00;;
40939;SDS011;26666;50.156;7.700;2023-05-09T23:38:54;0.00;;;0.00;;
40939;SDS011;26666;50.156;7.700;2023-05-09T23:43:57;5.35;;;0.65;;
40939;SDS011;26666;50.156;7.700;2023-05-09T23:48:59;0.00;;;0.00;;
40939;SDS011;26666;50.156;7.700;2023-05-09T23:54:01;0.10;;;0.00;;
40939;SDS011;26666;50.156;7.700;2023-05-09T23:59:04;0.00;;;0.00;;
